sensor_id;sensor_type;location;lat;lon;timestamp;temperature;humidity
429;DHT22;201;48.758;9.290;2023-02-12T00:02:09;5.40;1.20
429;DHT22;201;48.758;9.290;2023-02-12T00:04:35;5.30;1.10
429;DHT22;201;48.758;9.290;2023-02-12T00:07:00;5.30;1.10
429;DHT22;201;48.758;9.290;2023-02-12T00:09:26;5.30;1.20
429;DHT22;201;48.758;9.290;2023-02-12T00:11:51;5.30;1.20
429;DHT22;201;48.758;9.290;2023-02-12T00:14:17;5.30;1.00
429;DHT22;201;48.758;9.290;2023-02-12T00:16:43;5.30;1.00
429;DHT22;201;48.758;9.290;2023-02-12T00:19:09;5.30;1.20
429;DHT22;201;48.758;9.290;2023-02-12T00:21:35;5.30;1.20
429;DHT22;201;48.758;9.290;2023-02-12T00:24:01;5.40;1.20
429;DHT22;201;48.758;9.290;2023-02-12T00:26:27;5.50;1.10
429;DHT22;201;48.758;9.290;2023-02-12T00:28:53;5.50;1.00
429;DHT22;201;48.758;9.290;2023-02-12T00:31:24;5.60;1.00
429;DHT22;201;48.758;9.290;2023-02-12T00:33:50;5.60;1.00
429;DHT22;201;48.758;9.290;2023-02-12T00:36:19;5.60;1.00
429;DHT22;201;48.758;9.290;2023-02-12T00:38:45;5.50;1.00
429;DHT22;201;48.758;9.290;2023-02-12T00:41:11;5.50;1.00
429;DHT22;201;48.758;9.290;2023-02-12T00:43:37;5.50;1.00
429;DHT22;201;48.758;9.290;2023-02-12T00:46:03;5.50;1.00
429;DHT22;201;48.758;9.290;2023-02-12T00:48:29;5.30;1.00
429;DHT22;201;48.758;9.290;2023-02-12T00:50:55;5.30;1.10
429;DHT22;201;48.758;9.290;2023-02-12T00:53:20;5.30;1.30
429;DHT22;201;48.758;9.290;2023-02-12T00:55:46;5.30;1.20
429;DHT22;201;48.758;9.290;2023-02-12T00:58:12;5.40;1.20
429;DHT22;201;48.758;9.290;2023-02-12T01:00:37;5.50;1.10
429;DHT22;201;48.758;9.290;2023-02-12T01:03:04;5.50;1.00
429;DHT22;201;48.758;9.290;2023-02-12T01:05:30;5.50;1.00
429;DHT22;201;48.758;9.290;2023-02-12T01:07:56;5.50;1.00
429;DHT22;201;48.758;9.290;2023-02-12T01:10:22;5.30;1.20
429;DHT22;201;48.758;9.290;2023-02-12T01:12:48;5.40;1.40
429;DHT22;201;48.758;9.290;2023-02-12T01:15:14;5.40;1.30
429;DHT22;201;48.758;9.290;2023-02-12T01:17:40;5.40;1.30
429;DHT22;201;48.758;9.290;2023-02-12T01:20:07;5.40;1.40
429;DHT22;201;48.758;9.290;2023-02-12T01:22:34;5.50;1.30
429;DHT22;201;48.758;9.290;2023-02-12T01:24:59;5.40;1.20
429;DHT22;201;48.758;9.290;2023-02-12T01:27:25;5.40;1.30
429;DHT22;201;48.758;9.290;2023-02-12T01:29:51;5.40;1.30
429;DHT22;201;48.758;9.290;2023-02-12T01:32:16;5.50;1.30
429;DHT22;201;48.758;9.290;2023-02-12T01:34:42;5.30;1.20
429;DHT22;201;48.758;9.290;2023-02-12T01:37:07;5.20;1.70
429;DHT22;201;48.758;9.290;2023-02-12T01:39:33;5.30;1.80
429;DHT22;201;48.758;9.290;2023-02-12T01:42:00;5.30;1.60
429;DHT22;201;48.758;9.290;2023-02-12T01:44:31;5.20;1.60
429;DHT22;201;48.758;9.290;2023-02-12T01:46:59;5.20;1.80
429;DHT22;201;48.758;9.290;2023-02-12T01:49:51;5.30;1.90
429;DHT22;201;48.758;9.290;2023-02-12T01:52:20;5.30;1.70
429;DHT22;201;48.758;9.290;2023-02-12T01:54:49;5.20;1.60
429;DHT22;201;48.758;9.290;2023-02-12T01:57:16;5.10;1.70
429;DHT22;201;48.758;9.290;2023-02-12T01:59:44;5.10;1.90
429;DHT22;201;48.758;9.290;2023-02-12T02:02:12;5.20;1.90
429;DHT22;201;48.758;9.290;2023-02-12T02:04:54;5.20;1.80
429;DHT22;201;48.758;9.290;2023-02-12T02:07:20;5.20;1.60
429;DHT22;201;48.758;9.290;2023-02-12T02:09:46;5.20;1.60
429;DHT22;201;48.758;9.290;2023-02-12T02:12:11;5.20;1.60
429;DHT22;201;48.758;9.290;2023-02-12T02:14:58;5.20;1.60
429;DHT22;201;48.758;9.290;2023-02-12T02:23:12;5.10;2.10
429;DHT22;201;48.758;9.290;2023-02-12T02:32:23;5.00;2.30
429;DHT22;201;48.758;9.290;2023-02-12T02:34:59;5.00;2.50
429;DHT22;201;48.758;9.290;2023-02-12T02:40:19;4.70;2.50
429;DHT22;201;48.758;9.290;2023-02-12T02:43:02;4.70;2.90
429;DHT22;201;48.758;9.290;2023-02-12T02:45:42;4.80;2.70
429;DHT22;201;48.758;9.290;2023-02-12T02:48:32;4.80;2.60
429;DHT22;201;48.758;9.290;2023-02-12T02:51:03;4.60;2.20
429;DHT22;201;48.758;9.290;2023-02-12T02:53:33;4.40;2.50
429;DHT22;201;48.758;9.290;2023-02-12T02:56:02;4.40;3.00
429;DHT22;201;48.758;9.290;2023-02-12T02:58:40;4.40;3.10
429;DHT22;201;48.758;9.290;2023-02-12T03:03:43;4.40;2.90
429;DHT22;201;48.758;9.290;2023-02-12T03:06:26;4.30;3.10
429;DHT22;201;48.758;9.290;2023-02-12T03:08:57;4.30;3.20
429;DHT22;201;48.758;9.290;2023-02-12T03:11:29;4.20;3.30
429;DHT22;201;48.758;9.290;2023-02-12T03:16:34;4.30;3.40
429;DHT22;201;48.758;9.290;2023-02-12T03:19:19;4.30;3.40
429;DHT22;201;48.758;9.290;2023-02-12T03:21:51;4.30;3.50
429;DHT22;201;48.758;9.290;2023-02-12T03:24:30;4.30;3.40
429;DHT22;201;48.758;9.290;2023-02-12T03:29:42;4.40;3.20
429;DHT22;201;48.758;9.290;2023-02-12T03:37:24;4.30;3.30
429;DHT22;201;48.758;9.290;2023-02-12T03:40:04;4.30;3.30
429;DHT22;201;48.758;9.290;2023-02-12T03:48:26;4.30;3.20
429;DHT22;201;48.758;9.290;2023-02-12T03:51:10;4.20;3.30
429;DHT22;201;48.758;9.290;2023-02-12T03:53:40;4.30;3.40
429;DHT22;201;48.758;9.290;2023-02-12T03:56:14;4.30;3.20
429;DHT22;201;48.758;9.290;2023-02-12T03:58:43;4.30;3.10
429;DHT22;201;48.758;9.290;2023-02-12T04:01:10;4.20;3.20
429;DHT22;201;48.758;9.290;2023-02-12T04:03:37;4.30;3.90
429;DHT22;201;48.758;9.290;2023-02-12T04:06:03;4.30;3.50
429;DHT22;201;48.758;9.290;2023-02-12T04:08:30;4.40;3.40
429;DHT22;201;48.758;9.290;2023-02-12T04:14:10;4.50;3.10
429;DHT22;201;48.758;9.290;2023-02-12T04:16:44;4.40;3.10
429;DHT22;201;48.758;9.290;2023-02-12T04:19:26;4.30;3.40
429;DHT22;201;48.758;9.290;2023-02-12T04:25:02;4.20;3.60
429;DHT22;201;48.758;9.290;2023-02-12T04:27:47;4.20;3.80
429;DHT22;201;48.758;9.290;2023-02-12T04:30:28;4.10;3.80
429;DHT22;201;48.758;9.290;2023-02-12T04:33:00;4.10;3.90
429;DHT22;201;48.758;9.290;2023-02-12T04:35:50;4.10;4.10
429;DHT22;201;48.758;9.290;2023-02-12T04:38:35;4.00;4.10
429;DHT22;201;48.758;9.290;2023-02-12T04:41:05;4.00;4.20
429;DHT22;201;48.758;9.290;2023-02-12T04:43:33;4.00;4.20
429;DHT22;201;48.758;9.290;2023-02-12T04:46:01;4.00;4.20
429;DHT22;201;48.758;9.290;2023-02-12T04:48:27;4.10;4.30
429;DHT22;201;48.758;9.290;2023-02-12T04:50:52;4.10;4.20
429;DHT22;201;48.758;9.290;2023-02-12T04:53:18;4.10;4.10
429;DHT22;201;48.758;9.290;2023-02-12T04:55:44;4.10;4.10
429;DHT22;201;48.758;9.290;2023-02-12T04:58:09;4.10;4.00
429;DHT22;201;48.758;9.290;2023-02-12T05:00:35;4.20;4.00
429;DHT22;201;48.758;9.290;2023-02-12T05:03:01;4.10;3.80
429;DHT22;201;48.758;9.290;2023-02-12T05:05:26;4.10;4.00
429;DHT22;201;48.758;9.290;2023-02-12T05:07:52;4.00;4.00
429;DHT22;201;48.758;9.290;2023-02-12T05:10:18;4.10;4.10
429;DHT22;201;48.758;9.290;2023-02-12T05:12:43;4.00;4.10
429;DHT22;201;48.758;9.290;2023-02-12T05:15:09;4.10;4.10
429;DHT22;201;48.758;9.290;2023-02-12T05:17:35;4.10;4.10
429;DHT22;201;48.758;9.290;2023-02-12T05:20:00;4.10;4.10
429;DHT22;201;48.758;9.290;2023-02-12T05:22:26;4.00;4.00
429;DHT22;201;48.758;9.290;2023-02-12T05:24:51;4.10;4.20
429;DHT22;201;48.758;9.290;2023-02-12T05:27:17;4.10;4.10
429;DHT22;201;48.758;9.290;2023-02-12T05:29:42;4.00;4.10
429;DHT22;201;48.758;9.290;2023-02-12T05:32:08;4.00;4.20
429;DHT22;201;48.758;9.290;2023-02-12T05:34:34;4.10;4.20
429;DHT22;201;48.758;9.290;2023-02-12T05:37:00;4.10;4.20
429;DHT22;201;48.758;9.290;2023-02-12T05:39:25;4.10;4.20
429;DHT22;201;48.758;9.290;2023-02-12T05:41:51;4.10;4.30
429;DHT22;201;48.758;9.290;2023-02-12T05:44:16;4.10;4.30
429;DHT22;201;48.758;9.290;2023-02-12T05:46:42;4.20;4.40
429;DHT22;201;48.758;9.290;2023-02-12T05:49:08;4.10;4.20
429;DHT22;201;48.758;9.290;2023-02-12T05:51:34;4.10;4.50
429;DHT22;201;48.758;9.290;2023-02-12T05:54:02;4.00;4.40
429;DHT22;201;48.758;9.290;2023-02-12T05:56:36;4.10;4.60
429;DHT22;201;48.758;9.290;2023-02-12T05:59:07;4.00;4.60
429;DHT22;201;48.758;9.290;2023-02-12T06:01:35;4.00;4.80
429;DHT22;201;48.758;9.290;2023-02-12T06:04:02;4.00;5.00
429;DHT22;201;48.758;9.290;2023-02-12T06:06:29;4.00;5.00
429;DHT22;201;48.758;9.290;2023-02-12T06:08:56;3.90;5.00
429;DHT22;201;48.758;9.290;2023-02-12T06:11:22;3.90;5.20
429;DHT22;201;48.758;9.290;2023-02-12T06:13:48;3.90;5.50
429;DHT22;201;48.758;9.290;2023-02-12T06:16:22;3.90;5.50
429;DHT22;201;48.758;9.290;2023-02-12T06:18:48;3.90;5.70
429;DHT22;201;48.758;9.290;2023-02-12T06:21:15;3.80;5.70
429;DHT22;201;48.758;9.290;2023-02-12T06:23:41;3.90;5.60
429;DHT22;201;48.758;9.290;2023-02-12T06:26:07;3.90;5.40
429;DHT22;201;48.758;9.290;2023-02-12T06:28:33;4.00;5.40
429;DHT22;201;48.758;9.290;2023-02-12T06:30:59;4.00;5.20
429;DHT22;201;48.758;9.290;2023-02-12T06:33:24;4.00;5.30
429;DHT22;201;48.758;9.290;2023-02-12T06:35:50;4.00;5.20
429;DHT22;201;48.758;9.290;2023-02-12T06:38:15;4.10;5.30
429;DHT22;201;48.758;9.290;2023-02-12T06:40:41;4.10;5.20
429;DHT22;201;48.758;9.290;2023-02-12T06:43:07;4.10;5.10
429;DHT22;201;48.758;9.290;2023-02-12T06:45:33;4.10;5.20
429;DHT22;201;48.758;9.290;2023-02-12T06:47:58;4.10;5.00
429;DHT22;201;48.758;9.290;2023-02-12T06:50:24;4.10;4.70
429;DHT22;201;48.758;9.290;2023-02-12T06:52:49;4.10;4.80
429;DHT22;201;48.758;9.290;2023-02-12T06:55:15;4.20;4.80
429;DHT22;201;48.758;9.290;2023-02-12T06:57:41;4.20;4.60
429;DHT22;201;48.758;9.290;2023-02-12T07:00:07;4.30;4.50
429;DHT22;201;48.758;9.290;2023-02-12T07:02:33;4.30;4.20
429;DHT22;201;48.758;9.290;2023-02-12T07:04:59;4.40;4.20
429;DHT22;201;48.758;9.290;2023-02-12T07:07:24;4.40;4.10
429;DHT22;201;48.758;9.290;2023-02-12T07:09:50;4.50;3.90
429;DHT22;201;48.758;9.290;2023-02-12T07:12:15;4.70;3.70
429;DHT22;201;48.758;9.290;2023-02-12T07:14:41;4.80;3.30
429;DHT22;201;48.758;9.290;2023-02-12T07:17:06;4.90;3.00
429;DHT22;201;48.758;9.290;2023-02-12T07:19:33;5.00;2.50
429;DHT22;201;48.758;9.290;2023-02-12T07:21:59;5.10;2.60
429;DHT22;201;48.758;9.290;2023-02-12T07:24:24;5.20;2.50
429;DHT22;201;48.758;9.290;2023-02-12T07:26:50;5.30;2.20
429;DHT22;201;48.758;9.290;2023-02-12T07:29:15;5.30;2.40
429;DHT22;201;48.758;9.290;2023-02-12T07:31:42;5.40;1.70
429;DHT22;201;48.758;9.290;2023-02-12T07:34:09;5.40;1.30
429;DHT22;201;48.758;9.290;2023-02-12T07:36:35;5.40;1.40
429;DHT22;201;48.758;9.290;2023-02-12T07:39:01;5.40;1.30
429;DHT22;201;48.758;9.290;2023-02-12T07:41:29;5.50;1.30
429;DHT22;201;48.758;9.290;2023-02-12T07:44:00;5.60;1.10
429;DHT22;201;48.758;9.290;2023-02-12T07:46:28;5.60;1.00
429;DHT22;201;48.758;9.290;2023-02-12T07:48:55;5.70;1.00
429;DHT22;201;48.758;9.290;2023-02-12T07:51:21;5.80;1.00
429;DHT22;201;48.758;9.290;2023-02-12T07:53:47;5.90;1.00
429;DHT22;201;48.758;9.290;2023-02-12T07:56:15;6.00;1.00
429;DHT22;201;48.758;9.290;2023-02-12T07:58:42;6.20;1.00
429;DHT22;201;48.758;9.290;2023-02-12T08:03:38;6.20;1.00
429;DHT22;201;48.758;9.290;2023-02-12T08:06:11;6.30;1.00
429;DHT22;201;48.758;9.290;2023-02-12T08:08:37;6.40;1.00
429;DHT22;201;48.758;9.290;2023-02-12T08:11:04;6.60;1.00
429;DHT22;201;48.758;9.290;2023-02-12T08:13:31;6.50;1.00
429;DHT22;201;48.758;9.290;2023-02-12T08:16:01;6.60;1.00
429;DHT22;201;48.758;9.290;2023-02-12T08:18:27;6.60;1.00
429;DHT22;201;48.758;9.290;2023-02-12T08:20:52;6.70;1.00
429;DHT22;201;48.758;9.290;2023-02-12T08:23:18;6.70;1.00
429;DHT22;201;48.758;9.290;2023-02-12T08:25:43;6.80;1.00
429;DHT22;201;48.758;9.290;2023-02-12T08:28:09;6.90;1.00
429;DHT22;201;48.758;9.290;2023-02-12T08:30:34;6.90;1.00
429;DHT22;201;48.758;9.290;2023-02-12T08:33:00;7.00;1.00
429;DHT22;201;48.758;9.290;2023-02-12T08:35:25;7.00;1.00
429;DHT22;201;48.758;9.290;2023-02-12T08:37:52;7.00;1.00
429;DHT22;201;48.758;9.290;2023-02-12T08:40:17;7.10;1.00
429;DHT22;201;48.758;9.290;2023-02-12T08:42:43;7.10;1.00
429;DHT22;201;48.758;9.290;2023-02-12T08:45:08;7.20;1.00
429;DHT22;201;48.758;9.290;2023-02-12T08:47:34;7.30;1.00
429;DHT22;201;48.758;9.290;2023-02-12T08:49:59;7.30;1.00
429;DHT22;201;48.758;9.290;2023-02-12T08:52:25;7.30;1.00
429;DHT22;201;48.758;9.290;2023-02-12T08:54:50;7.50;1.00
429;DHT22;201;48.758;9.290;2023-02-12T08:57:16;7.70;1.00
429;DHT22;201;48.758;9.290;2023-02-12T08:59:41;7.70;1.00
429;DHT22;201;48.758;9.290;2023-02-12T09:02:09;7.70;1.00
429;DHT22;201;48.758;9.290;2023-02-12T09:04:35;7.80;1.00
429;DHT22;201;48.758;9.290;2023-02-12T09:07:00;7.90;1.00
429;DHT22;201;48.758;9.290;2023-02-12T09:09:26;8.10;1.00
429;DHT22;201;48.758;9.290;2023-02-12T09:11:52;8.20;1.00
429;DHT22;201;48.758;9.290;2023-02-12T09:14:18;8.20;1.00
429;DHT22;201;48.758;9.290;2023-02-12T09:16:48;8.10;1.00
429;DHT22;201;48.758;9.290;2023-02-12T09:19:14;8.20;1.00
429;DHT22;201;48.758;9.290;2023-02-12T09:21:40;8.30;1.00
429;DHT22;201;48.758;9.290;2023-02-12T09:24:07;8.40;1.00
429;DHT22;201;48.758;9.290;2023-02-12T09:26:32;8.50;1.00
429;DHT22;201;48.758;9.290;2023-02-12T09:28:58;8.50;1.00
429;DHT22;201;48.758;9.290;2023-02-12T09:31:28;8.70;1.00
429;DHT22;201;48.758;9.290;2023-02-12T09:33:58;8.80;1.00
429;DHT22;201;48.758;9.290;2023-02-12T09:36:24;8.90;1.00
429;DHT22;201;48.758;9.290;2023-02-12T09:38:49;8.80;1.00
429;DHT22;201;48.758;9.290;2023-02-12T09:41:24;8.60;1.00
429;DHT22;201;48.758;9.290;2023-02-12T09:46:49;8.60;1.00
429;DHT22;201;48.758;9.290;2023-02-12T09:51:58;8.20;1.00
429;DHT22;201;48.758;9.290;2023-02-12T09:54:29;8.20;1.00
429;DHT22;201;48.758;9.290;2023-02-12T09:56:59;8.40;1.00
429;DHT22;201;48.758;9.290;2023-02-12T09:59:51;8.40;1.00
429;DHT22;201;48.758;9.290;2023-02-12T10:02:19;8.40;1.00
429;DHT22;201;48.758;9.290;2023-02-12T10:04:47;8.70;1.00
429;DHT22;201;48.758;9.290;2023-02-12T10:09:51;8.90;1.00
429;DHT22;201;48.758;9.290;2023-02-12T10:17:50;9.10;1.00
429;DHT22;201;48.758;9.290;2023-02-12T10:21:02;9.20;1.00
429;DHT22;201;48.758;9.290;2023-02-12T10:26:46;9.50;1.00
429;DHT22;201;48.758;9.290;2023-02-12T10:29:19;9.30;1.00
429;DHT22;201;48.758;9.290;2023-02-12T10:31:59;9.30;1.00
429;DHT22;201;48.758;9.290;2023-02-12T10:34:34;9.30;1.00
429;DHT22;201;48.758;9.290;2023-02-12T10:37:39;9.30;1.00
429;DHT22;201;48.758;9.290;2023-02-12T10:40:17;9.10;1.00
429;DHT22;201;48.758;9.290;2023-02-12T10:42:46;9.10;1.00
429;DHT22;201;48.758;9.290;2023-02-12T10:45:35;9.30;1.00
429;DHT22;201;48.758;9.290;2023-02-12T10:48:19;9.30;1.00
429;DHT22;201;48.758;9.290;2023-02-12T10:51:03;9.60;1.00
429;DHT22;201;48.758;9.290;2023-02-12T10:53:35;9.80;1.00
429;DHT22;201;48.758;9.290;2023-02-12T10:58:40;9.90;1.00
429;DHT22;201;48.758;9.290;2023-02-12T11:01:15;10.10;1.00
429;DHT22;201;48.758;9.290;2023-02-12T11:03:41;9.80;1.00
429;DHT22;201;48.758;9.290;2023-02-12T11:06:19;9.60;1.00
429;DHT22;201;48.758;9.290;2023-02-12T11:08:46;9.30;1.00
429;DHT22;201;48.758;9.290;2023-02-12T11:11:19;9.30;1.00
429;DHT22;201;48.758;9.290;2023-02-12T11:14:04;9.60;1.00
429;DHT22;201;48.758;9.290;2023-02-12T11:16:39;9.50;1.00
429;DHT22;201;48.758;9.290;2023-02-12T11:19:27;9.40;1.00
429;DHT22;201;48.758;9.290;2023-02-12T11:22:11;9.50;1.00
429;DHT22;201;48.758;9.290;2023-02-12T11:24:43;9.40;1.00
429;DHT22;201;48.758;9.290;2023-02-12T11:29:40;9.30;1.00
429;DHT22;201;48.758;9.290;2023-02-12T11:32:08;9.10;1.00
429;DHT22;201;48.758;9.290;2023-02-12T11:34:35;9.10;1.00
429;DHT22;201;48.758;9.290;2023-02-12T11:37:01;9.20;1.00
429;DHT22;201;48.758;9.290;2023-02-12T11:39:32;9.10;1.00
429;DHT22;201;48.758;9.290;2023-02-12T11:42:06;9.00;1.00
429;DHT22;201;48.758;9.290;2023-02-12T11:44:42;9.10;1.00
429;DHT22;201;48.758;9.290;2023-02-12T11:47:10;9.10;1.00
429;DHT22;201;48.758;9.290;2023-02-12T11:49:54;9.10;1.00
429;DHT22;201;48.758;9.290;2023-02-12T11:52:27;9.20;1.00
429;DHT22;201;48.758;9.290;2023-02-12T11:55:02;9.30;1.00
429;DHT22;201;48.758;9.290;2023-02-12T11:57:46;9.40;1.00
429;DHT22;201;48.758;9.290;2023-02-12T12:00:23;9.50;1.00
429;DHT22;201;48.758;9.290;2023-02-12T12:03:01;9.60;1.00
429;DHT22;201;48.758;9.290;2023-02-12T12:05:34;9.80;1.00
429;DHT22;201;48.758;9.290;2023-02-12T12:08:06;9.90;1.00
429;DHT22;201;48.758;9.290;2023-02-12T12:10:40;9.80;1.00
429;DHT22;201;48.758;9.290;2023-02-12T12:13:15;9.90;1.00
429;DHT22;201;48.758;9.290;2023-02-12T12:15:48;9.90;1.00
429;DHT22;201;48.758;9.290;2023-02-12T12:21:53;9.70;1.00
429;DHT22;201;48.758;9.290;2023-02-12T12:24:31;9.60;1.00
429;DHT22;201;48.758;9.290;2023-02-12T12:27:19;9.60;1.00
429;DHT22;201;48.758;9.290;2023-02-12T12:30:07;9.60;1.00
429;DHT22;201;48.758;9.290;2023-02-12T12:32:37;9.40;1.00
429;DHT22;201;48.758;9.290;2023-02-12T12:35:08;9.20;1.00
429;DHT22;201;48.758;9.290;2023-02-12T12:41:08;9.00;1.00
429;DHT22;201;48.758;9.290;2023-02-12T12:43:44;9.10;1.00
429;DHT22;201;48.758;9.290;2023-02-12T12:49:02;9.00;1.00
429;DHT22;201;48.758;9.290;2023-02-12T12:51:52;9.00;1.00
429;DHT22;201;48.758;9.290;2023-02-12T13:13:47;9.10;1.00
429;DHT22;201;48.758;9.290;2023-02-12T13:16:20;9.20;1.00
429;DHT22;201;48.758;9.290;2023-02-12T13:19:37;9.30;1.00
429;DHT22;201;48.758;9.290;2023-02-12T13:27:06;9.50;1.00
429;DHT22;201;48.758;9.290;2023-02-12T13:29:43;9.60;1.00
429;DHT22;201;48.758;9.290;2023-02-12T13:32:21;9.70;1.00
429;DHT22;201;48.758;9.290;2023-02-12T13:34:47;9.90;1.00
429;DHT22;201;48.758;9.290;2023-02-12T13:37:18;9.90;1.00
429;DHT22;201;48.758;9.290;2023-02-12T13:39:47;10.00;1.00
429;DHT22;201;48.758;9.290;2023-02-12T13:42:41;10.00;1.00
429;DHT22;201;48.758;9.290;2023-02-12T13:45:20;10.20;1.00
429;DHT22;201;48.758;9.290;2023-02-12T13:53:33;10.40;1.00
429;DHT22;201;48.758;9.290;2023-02-12T13:58:51;10.60;1.00
429;DHT22;201;48.758;9.290;2023-02-12T14:01:37;10.50;1.00
429;DHT22;201;48.758;9.290;2023-02-12T14:06:52;10.50;1.00
429;DHT22;201;48.758;9.290;2023-02-12T14:09:21;10.60;1.00
429;DHT22;201;48.758;9.290;2023-02-12T14:11:52;10.60;1.00
429;DHT22;201;48.758;9.290;2023-02-12T14:14:31;10.50;1.00
429;DHT22;201;48.758;9.290;2023-02-12T14:23:01;10.30;1.00
429;DHT22;201;48.758;9.290;2023-02-12T14:25:43;10.30;1.00
429;DHT22;201;48.758;9.290;2023-02-12T14:28:19;10.30;1.00
429;DHT22;201;48.758;9.290;2023-02-12T14:33:47;10.20;1.00
429;DHT22;201;48.758;9.290;2023-02-12T14:36:17;10.20;1.00
429;DHT22;201;48.758;9.290;2023-02-12T14:41:29;10.20;1.00
429;DHT22;201;48.758;9.290;2023-02-12T14:46:52;10.30;1.00
429;DHT22;201;48.758;9.290;2023-02-12T14:49:31;10.40;1.00
429;DHT22;201;48.758;9.290;2023-02-12T14:57:24;10.30;1.00
429;DHT22;201;48.758;9.290;2023-02-12T14:59:52;10.10;1.00
429;DHT22;201;48.758;9.290;2023-02-12T15:02:24;10.10;1.00
429;DHT22;201;48.758;9.290;2023-02-12T15:04:52;10.00;1.00
429;DHT22;201;48.758;9.290;2023-02-12T15:07:43;10.00;1.00
429;DHT22;201;48.758;9.290;2023-02-12T15:10:16;10.10;1.00
429;DHT22;201;48.758;9.290;2023-02-12T15:12:47;10.10;1.00
429;DHT22;201;48.758;9.290;2023-02-12T15:15:24;10.20;1.00
429;DHT22;201;48.758;9.290;2023-02-12T15:18:09;10.10;1.00
429;DHT22;201;48.758;9.290;2023-02-12T15:20:50;10.00;1.00
429;DHT22;201;48.758;9.290;2023-02-12T15:24:02;10.00;1.00
429;DHT22;201;48.758;9.290;2023-02-12T15:26:31;10.00;1.00
429;DHT22;201;48.758;9.290;2023-02-12T15:28:58;10.30;1.00
429;DHT22;201;48.758;9.290;2023-02-12T15:31:28;10.80;1.00
429;DHT22;201;48.758;9.290;2023-02-12T15:33:57;11.20;1.00
429;DHT22;201;48.758;9.290;2023-02-12T15:36:25;11.40;1.00
429;DHT22;201;48.758;9.290;2023-02-12T15:39:36;11.40;1.00
429;DHT22;201;48.758;9.290;2023-02-12T15:41:41;11.30;1.00
429;DHT22;201;48.758;9.290;2023-02-12T15:46:57;10.70;1.00
429;DHT22;201;48.758;9.290;2023-02-12T15:49:35;10.50;1.00
429;DHT22;201;48.758;9.290;2023-02-12T15:54:35;10.10;1.00
429;DHT22;201;48.758;9.290;2023-02-12T15:57:01;10.20;1.00
429;DHT22;201;48.758;9.290;2023-02-12T15:59:33;10.10;1.00
429;DHT22;201;48.758;9.290;2023-02-12T16:02:01;10.00;1.00
429;DHT22;201;48.758;9.290;2023-02-12T16:04:32;9.90;1.00
429;DHT22;201;48.758;9.290;2023-02-12T16:06:59;10.00;1.00
429;DHT22;201;48.758;9.290;2023-02-12T16:09:30;9.90;1.00
429;DHT22;201;48.758;9.290;2023-02-12T16:11:59;9.60;1.00
429;DHT22;201;48.758;9.290;2023-02-12T16:19:57;8.60;1.00
429;DHT22;201;48.758;9.290;2023-02-12T16:22:28;8.20;1.00
429;DHT22;201;48.758;9.290;2023-02-12T16:24:55;7.90;1.00
429;DHT22;201;48.758;9.290;2023-02-12T16:27:24;7.70;1.00
429;DHT22;201;48.758;9.290;2023-02-12T16:29:53;7.50;1.20
429;DHT22;201;48.758;9.290;2023-02-12T16:32:42;7.40;1.70
429;DHT22;201;48.758;9.290;2023-02-12T16:40:09;7.00;2.90
429;DHT22;201;48.758;9.290;2023-02-12T16:50:27;6.70;4.60
429;DHT22;201;48.758;9.290;2023-02-12T16:53:02;6.60;5.00
429;DHT22;201;48.758;9.290;2023-02-12T16:55:28;6.50;5.20
429;DHT22;201;48.758;9.290;2023-02-12T16:57:54;6.40;5.40
429;DHT22;201;48.758;9.290;2023-02-12T17:00:20;6.40;5.90
429;DHT22;201;48.758;9.290;2023-02-12T17:02:46;6.30;6.30
429;DHT22;201;48.758;9.290;2023-02-12T17:05:14;6.20;6.60
429;DHT22;201;48.758;9.290;2023-02-12T17:07:41;6.20;6.70
429;DHT22;201;48.758;9.290;2023-02-12T17:10:11;6.10;7.00
429;DHT22;201;48.758;9.290;2023-02-12T17:12:48;6.10;7.00
429;DHT22;201;48.758;9.290;2023-02-12T17:15:23;6.10;7.20
429;DHT22;201;48.758;9.290;2023-02-12T17:17:50;6.00;7.50
429;DHT22;201;48.758;9.290;2023-02-12T17:20:16;6.00;7.60
429;DHT22;201;48.758;9.290;2023-02-12T17:22:48;6.00;7.50
429;DHT22;201;48.758;9.290;2023-02-12T17:25:15;5.90;7.50
429;DHT22;201;48.758;9.290;2023-02-12T17:27:40;5.90;7.50
429;DHT22;201;48.758;9.290;2023-02-12T17:30:06;5.90;7.50
429;DHT22;201;48.758;9.290;2023-02-12T17:32:32;5.90;7.50
429;DHT22;201;48.758;9.290;2023-02-12T17:34:58;5.90;7.50
429;DHT22;201;48.758;9.290;2023-02-12T17:37:23;5.80;7.50
429;DHT22;201;48.758;9.290;2023-02-12T17:39:50;5.80;7.40
429;DHT22;201;48.758;9.290;2023-02-12T17:42:16;5.80;7.40
429;DHT22;201;48.758;9.290;2023-02-12T17:44:41;5.70;7.30
429;DHT22;201;48.758;9.290;2023-02-12T17:47:07;5.70;7.40
429;DHT22;201;48.758;9.290;2023-02-12T17:49:32;5.70;7.60
429;DHT22;201;48.758;9.290;2023-02-12T17:52:00;5.60;7.60
429;DHT22;201;48.758;9.290;2023-02-12T17:54:26;5.60;8.10
429;DHT22;201;48.758;9.290;2023-02-12T17:56:51;5.50;8.40
429;DHT22;201;48.758;9.290;2023-02-12T17:59:17;5.50;8.70
429;DHT22;201;48.758;9.290;2023-02-12T18:01:42;5.50;9.20
429;DHT22;201;48.758;9.290;2023-02-12T18:04:09;5.40;9.10
429;DHT22;201;48.758;9.290;2023-02-12T18:06:35;5.50;9.40
429;DHT22;201;48.758;9.290;2023-02-12T18:09:00;5.50;9.70
429;DHT22;201;48.758;9.290;2023-02-12T18:11:26;5.50;9.90
429;DHT22;201;48.758;9.290;2023-02-12T18:13:54;5.60;9.70
429;DHT22;201;48.758;9.290;2023-02-12T18:16:21;5.60;9.50
429;DHT22;201;48.758;9.290;2023-02-12T18:18:47;5.60;9.40
429;DHT22;201;48.758;9.290;2023-02-12T18:21:14;5.60;9.20
429;DHT22;201;48.758;9.290;2023-02-12T18:23:40;5.60;9.30
429;DHT22;201;48.758;9.290;2023-02-12T18:26:14;5.60;9.20
429;DHT22;201;48.758;9.290;2023-02-12T18:28:41;5.60;9.30
429;DHT22;201;48.758;9.290;2023-02-12T18:31:07;5.60;9.20
429;DHT22;201;48.758;9.290;2023-02-12T18:33:33;5.60;8.90
429;DHT22;201;48.758;9.290;2023-02-12T18:38:28;5.60;8.20
429;DHT22;201;48.758;9.290;2023-02-12T18:40:54;5.70;7.30
429;DHT22;201;48.758;9.290;2023-02-12T18:43:19;5.70;7.30
429;DHT22;201;48.758;9.290;2023-02-12T18:45:46;5.60;7.30
429;DHT22;201;48.758;9.290;2023-02-12T18:48:12;5.60;7.30
429;DHT22;201;48.758;9.290;2023-02-12T18:50:37;5.60;7.20
429;DHT22;201;48.758;9.290;2023-02-12T18:53:03;5.60;6.80
429;DHT22;201;48.758;9.290;2023-02-12T18:55:29;5.60;6.30
429;DHT22;201;48.758;9.290;2023-02-12T18:57:54;5.60;6.20
429;DHT22;201;48.758;9.290;2023-02-12T19:00:20;5.60;6.00
429;DHT22;201;48.758;9.290;2023-02-12T19:02:46;5.60;5.70
429;DHT22;201;48.758;9.290;2023-02-12T19:05:12;5.60;5.70
429;DHT22;201;48.758;9.290;2023-02-12T19:07:37;5.60;5.80
429;DHT22;201;48.758;9.290;2023-02-12T19:10:03;5.50;5.90
429;DHT22;201;48.758;9.290;2023-02-12T19:12:28;5.50;6.10
429;DHT22;201;48.758;9.290;2023-02-12T19:14:54;5.50;6.30
429;DHT22;201;48.758;9.290;2023-02-12T19:17:19;5.40;6.60
429;DHT22;201;48.758;9.290;2023-02-12T19:19:48;5.40;6.80
429;DHT22;201;48.758;9.290;2023-02-12T19:22:15;5.40;6.70
429;DHT22;201;48.758;9.290;2023-02-12T19:24:40;5.50;7.00
429;DHT22;201;48.758;9.290;2023-02-12T19:27:06;5.40;6.90
429;DHT22;201;48.758;9.290;2023-02-12T19:29:31;5.40;6.90
429;DHT22;201;48.758;9.290;2023-02-12T19:31:57;5.40;7.00
429;DHT22;201;48.758;9.290;2023-02-12T19:34:22;5.30;7.10
429;DHT22;201;48.758;9.290;2023-02-12T19:36:49;5.30;7.70
429;DHT22;201;48.758;9.290;2023-02-12T19:39:19;5.20;7.00
429;DHT22;201;48.758;9.290;2023-02-12T19:41:45;5.20;7.00
429;DHT22;201;48.758;9.290;2023-02-12T19:44:17;5.20;7.00
429;DHT22;201;48.758;9.290;2023-02-12T19:46:44;5.20;7.00
429;DHT22;201;48.758;9.290;2023-02-12T19:49:15;5.10;6.90
429;DHT22;201;48.758;9.290;2023-02-12T19:51:42;5.10;6.90
429;DHT22;201;48.758;9.290;2023-02-12T19:54:08;5.10;6.90
429;DHT22;201;48.758;9.290;2023-02-12T19:56:35;5.10;7.00
429;DHT22;201;48.758;9.290;2023-02-12T19:59:01;5.10;6.90
429;DHT22;201;48.758;9.290;2023-02-12T20:01:27;5.10;7.00
429;DHT22;201;48.758;9.290;2023-02-12T20:03:53;5.00;6.90